Time;durP1;ratioP1;P1;durP2;ratioP2;P2;SDS_P1;SDS_P2;PMS_P1;PMS_P2;Temp;Humidity;BMP_temperature;BMP_pressure;BME280_temperature;BME280_humidity;BME280_pressure;Samples;Min_cycle;Max_cycle;Signal;HPM_P1;HPM_P2
2022/01/10 00:02:12;;;;;;;19.43;11.10;;;0.00;78.80;;;;;;6293485;28;20189;-61
2022/01/10 00:05:13;;;;;;;19.03;13.17;;;0.00;78.80;;;;;;6303867;28;20238;-60
2022/01/10 00:08:14;;;;;;;20.50;14.50;;;0.00;78.80;;;;;;6344294;28;20244;-60
2022/01/10 00:11:15;;;;;;;20.57;13.30;;;0.00;78.90;;;;;;6293833;28;20191;-60
2022/01/10 00:14:16;;;;;;;18.20;12.50;;;0.00;79.00;;;;;;6293419;28;20277;-62
2022/01/10 00:17:17;;;;;;;17.00;12.07;;;0.00;79.10;;;;;;6276747;28;20197;-60
2022/01/10 00:20:19;;;;;;;16.80;12.13;;;-3276.70;79.20;;;;;;6315192;28;20240;-61
2022/01/10 00:23:19;;;;;;;19.47;13.23;;;-3276.70;79.20;;;;;;6284760;28;20200;-60
2022/01/10 00:26:20;;;;;;;20.57;13.27;;;-3276.70;79.20;;;;;;6267601;28;20217;-61
2022/01/10 00:29:21;;;;;;;15.80;12.17;;;-3276.70;79.20;;;;;;6284983;28;20272;-60
2022/01/10 00:32:25;;;;;;;18.93;12.10;;;-3276.70;79.50;;;;;;6293403;28;20192;-60
2022/01/10 00:35:26;;;;;;;27.33;13.80;;;-3276.70;79.50;;;;;;6301823;28;20249;-60
2022/01/10 00:38:27;;;;;;;22.40;14.90;;;-3276.70;79.60;;;;;;6291525;28;20200;-60
2022/01/10 00:41:28;;;;;;;20.83;13.40;;;-3276.70;79.70;;;;;;6301986;28;20193;-60
2022/01/10 00:44:32;;;;;;;22.07;14.27;;;-3276.70;79.60;;;;;;6309637;28;20230;-60
2022/01/10 00:47:32;;;;;;;17.33;12.57;;;-3276.70;79.60;;;;;;6308772;28;20283;-60
2022/01/10 00:50:33;;;;;;;18.67;13.57;;;-3276.70;79.80;;;;;;6309602;28;20234;-60
2022/01/10 00:53:34;;;;;;;23.07;14.90;;;-3276.70;79.90;;;;;;6325604;28;20194;-60
2022/01/10 00:56:35;;;;;;;22.13;15.03;;;-3276.70;79.60;;;;;;6325937;28;20195;-60
2022/01/10 00:59:37;;;;;;;18.67;14.17;;;0.00;80.00;;;;;;6317356;28;20192;-60
2022/01/10 01:02:39;;;;;;;20.30;13.83;;;0.00;79.90;;;;;;6267324;28;20536;-60
2022/01/10 01:05:42;;;;;;;21.77;14.53;;;0.00;79.60;;;;;;6289695;28;20298;-60
2022/01/10 01:08:44;;;;;;;19.40;13.00;;;0.00;79.60;;;;;;6342038;28;20192;-60
2022/01/10 01:15:18;;;;;;;19.60;14.27;;;0.00;79.40;;;;;;6295717;28;20197;-60
2022/01/10 01:18:32;;;;;;;23.53;15.90;;;0.00;79.60;;;;;;6269243;28;20257;-61
2022/01/10 01:24:52;;;;;;;19.80;14.60;;;0.00;79.50;;;;;;6325119;28;20223;-62
2022/01/10 01:27:54;;;;;;;19.00;13.57;;;0.00;79.60;;;;;;6289079;28;20713;-61
2022/01/10 01:30:56;;;;;;;19.30;14.53;;;0.00;79.50;;;;;;6300430;28;20440;-62
2022/01/10 01:33:57;;;;;;;16.70;13.40;;;0.00;79.50;;;;;;6306062;28;20189;-61
2022/01/10 01:36:57;;;;;;;21.47;13.90;;;0.00;79.60;;;;;;6300130;28;20227;-62
2022/01/10 01:39:59;;;;;;;20.23;14.17;;;0.00;79.40;;;;;;6309998;28;20195;-61
2022/01/10 01:43:00;;;;;;;18.77;13.27;;;0.00;79.60;;;;;;6324816;28;20186;-61
2022/01/10 01:46:01;;;;;;;21.90;13.67;;;0.00;79.50;;;;;;6306947;28;20224;-61
2022/01/10 01:49:05;;;;;;;18.30;13.37;;;0.00;79.60;;;;;;6286014;28;20193;-61
2022/01/10 01:52:06;;;;;;;18.47;13.67;;;0.00;79.80;;;;;;6317628;28;20239;-61
2022/01/10 01:55:08;;;;;;;17.93;13.20;;;0.00;79.80;;;;;;6273806;28;20188;-62
2022/01/10 01:58:09;;;;;;;18.50;13.90;;;0.00;79.70;;;;;;6275117;28;20195;-60
2022/01/10 02:01:11;;;;;;;22.30;14.27;;;0.00;79.60;;;;;;6307336;28;20199;-60
2022/01/10 02:04:12;;;;;;;20.87;13.43;;;0.00;79.70;;;;;;6286432;28;20231;-60
2022/01/10 02:07:13;;;;;;;19.90;12.87;;;0.00;79.80;;;;;;6316056;28;20468;-61
2022/01/10 02:10:17;;;;;;;23.80;15.10;;;0.00;79.70;;;;;;6299151;28;20251;-61
2022/01/10 02:13:17;;;;;;;19.20;13.67;;;0.00;79.50;;;;;;6316349;28;20188;-61
2022/01/10 02:16:31;;;;;;;24.40;14.70;;;0.00;79.50;;;;;;6298762;28;20189;-61
2022/01/10 02:19:32;;;;;;;21.07;13.93;;;0.00;79.70;;;;;;6320625;28;20327;-61
2022/01/10 02:22:37;;;;;;;22.53;14.30;;;0.00;79.90;;;;;;6310086;28;20275;-61
2022/01/10 02:25:56;;;;;;;20.47;14.03;;;0.00;80.00;;;;;;6324223;28;20292;-61
2022/01/10 02:29:06;;;;;;;18.57;13.43;;;0.00;80.00;;;;;;6292114;28;20206;-61
2022/01/10 02:32:07;;;;;;;24.30;15.00;;;0.00;80.10;;;;;;6331970;28;20198;-61
2022/01/10 02:35:19;;;;;;;21.70;14.43;;;0.00;80.10;;;;;;6331498;28;20191;-61
2022/01/10 02:38:19;;;;;;;18.70;13.87;;;0.00;79.80;;;;;;6315350;28;20263;-61
2022/01/10 02:41:22;;;;;;;19.47;14.87;;;0.00;79.90;;;;;;6332455;28;20176;-61
2022/01/10 02:44:24;;;;;;;24.57;15.20;;;0.00;79.90;;;;;;6336216;28;20877;-61
2022/01/10 02:47:27;;;;;;;19.10;13.60;;;0.00;79.80;;;;;;6306588;28;20635;-61
2022/01/10 02:50:28;;;;;;;25.57;15.70;;;0.00;79.70;;;;;;6322463;28;20188;-61
2022/01/10 02:53:29;;;;;;;21.07;14.93;;;0.00;79.60;;;;;;6331384;28;20253;-61
2022/01/10 02:56:30;;;;;;;24.17;15.47;;;0.00;79.60;;;;;;6331637;28;20205;-61
2022/01/10 02:59:31;;;;;;;20.07;14.67;;;0.10;79.60;;;;;;6331943;28;20203;-61
2022/01/10 03:02:34;;;;;;;19.90;13.77;;;0.00;79.60;;;;;;6331125;28;20200;-61
2022/01/10 03:05:35;;;;;;;22.03;13.63;;;0.00;79.70;;;;;;6298960;28;20306;-62
2022/01/10 03:08:36;;;;;;;17.80;12.37;;;0.00;80.00;;;;;;6348821;28;20201;-61
2022/01/10 03:11:42;;;;;;;17.10;13.30;;;0.00;79.80;;;;;;6320674;28;20230;-60
2022/01/10 03:14:45;;;;;;;19.83;14.03;;;0.00;79.80;;;;;;6290092;28;20232;-61
2022/01/10 03:17:46;;;;;;;20.30;13.80;;;0.00;79.80;;;;;;6301570;28;20209;-61
2022/01/10 03:20:47;;;;;;;20.20;13.60;;;0.00;80.00;;;;;;6306000;28;20236;-60
2022/01/10 03:23:51;;;;;;;20.23;14.07;;;0.00;79.90;;;;;;6289254;28;20199;-61
2022/01/10 03:26:52;;;;;;;19.20;13.20;;;-3276.70;80.10;;;;;;6357653;28;20265;-60
2022/01/10 03:29:54;;;;;;;19.27;13.40;;;0.00;80.30;;;;;;6331417;28;20185;-61
2022/01/10 03:32:58;;;;;;;17.30;12.80;;;0.00;80.20;;;;;;6335512;28;20257;-61
2022/01/10 03:36:04;;;;;;;17.10;13.30;;;-3276.70;80.30;;;;;;6290134;28;20196;-61
2022/01/10 03:39:05;;;;;;;19.10;12.93;;;0.00;80.30;;;;;;6306360;28;20185;-61
2022/01/10 03:42:06;;;;;;;17.97;12.17;;;-3276.70;80.10;;;;;;6333476;28;20199;-61
2022/01/10 03:45:08;;;;;;;20.30;12.70;;;-3276.70;79.70;;;;;;6322220;28;20219;-61
2022/01/10 03:48:09;;;;;;;18.43;12.53;;;-3276.70;79.80;;;;;;6306228;28;20242;-61
2022/01/10 03:51:10;;;;;;;16.53;12.17;;;-3276.70;79.90;;;;;;6327645;28;20239;-61
2022/01/10 03:54:11;;;;;;;16.37;11.70;;;-3276.70;80.00;;;;;;6324223;28;20189;-61
2022/01/10 03:57:12;;;;;;;18.87;13.60;;;-3276.70;80.10;;;;;;6288900;28;20207;-61
2022/01/10 04:00:14;;;;;;;19.17;13.47;;;-3276.70;80.10;;;;;;6330731;28;20218;-61
2022/01/10 04:03:18;;;;;;;20.37;13.03;;;-3276.70;80.20;;;;;;6334981;28;20180;-60
2022/01/10 04:06:26;;;;;;;16.37;12.90;;;-3276.70;80.30;;;;;;6333236;27;20217;-61
2022/01/10 04:09:27;;;;;;;17.30;12.57;;;-3276.70;80.30;;;;;;6312683;28;20269;-60
2022/01/10 04:12:27;;;;;;;20.00;12.50;;;-3276.70;80.40;;;;;;6318791;28;20198;-60
2022/01/10 04:15:28;;;;;;;19.93;13.00;;;-3276.70;80.40;;;;;;6335108;28;20199;-61
2022/01/10 04:18:29;;;;;;;19.13;13.63;;;-3276.60;80.50;;;;;;6325280;28;20246;-60
2022/01/10 04:21:30;;;;;;;18.23;13.10;;;-3276.70;80.30;;;;;;6303259;28;20316;-61
2022/01/10 04:24:31;;;;;;;18.80;12.73;;;-3276.60;80.40;;;;;;6290581;28;20202;-60
2022/01/10 04:27:32;;;;;;;20.30;12.17;;;-3276.60;80.60;;;;;;6269618;28;20202;-61
2022/01/10 04:30:34;;;;;;;18.37;13.20;;;-3276.60;80.60;;;;;;6301557;28;20197;-61
2022/01/10 04:33:36;;;;;;;19.97;12.53;;;-3276.60;80.60;;;;;;6305357;28;20193;-61
2022/01/10 04:36:37;;;;;;;18.83;12.43;;;-3276.60;80.50;;;;;;6289227;28;20251;-61
2022/01/10 04:39:38;;;;;;;20.93;12.80;;;-3276.60;80.70;;;;;;6314421;28;20189;-61
2022/01/10 04:42:39;;;;;;;17.67;12.03;;;-3276.60;80.50;;;;;;6301311;28;20201;-61
2022/01/10 04:45:42;;;;;;;18.77;13.00;;;-3276.60;80.70;;;;;;6299567;28;20248;-61
2022/01/10 04:48:43;;;;;;;20.07;12.07;;;-3276.60;80.80;;;;;;6303098;28;20285;-61
2022/01/10 04:51:44;;;;;;;17.83;13.00;;;-3276.60;80.60;;;;;;6273037;28;20194;-62
2022/01/10 04:54:45;;;;;;;20.90;12.83;;;-3276.60;80.60;;;;;;6299414;28;20196;-62
2022/01/10 04:57:47;;;;;;;18.77;12.97;;;-3276.50;80.50;;;;;;6286652;28;20220;-61
2022/01/10 05:00:51;;;;;;;20.23;13.77;;;-3276.50;80.60;;;;;;6309230;28;20185;-61
2022/01/10 05:03:52;;;;;;;16.83;12.73;;;-3276.50;80.80;;;;;;6302770;28;20217;-61
2022/01/10 05:06:53;;;;;;;20.53;12.47;;;-3276.50;80.70;;;;;;6285134;28;20220;-62
2022/01/10 05:09:54;;;;;;;25.13;15.73;;;-3276.50;80.80;;;;;;6303131;28;20189;-61
2022/01/10 05:12:55;;;;;;;25.30;15.47;;;-3276.50;80.80;;;;;;6282425;28;20186;-62
2022/01/10 05:15:56;;;;;;;26.27;15.93;;;-3276.60;80.80;;;;;;6269746;28;20194;-62
2022/01/10 05:18:57;;;;;;;21.47;14.13;;;-3276.60;80.90;;;;;;6276174;28;20201;-62
2022/01/10 05:21:58;;;;;;;20.27;14.27;;;-3276.50;80.80;;;;;;6270322;28;20270;-62
2022/01/10 05:24:59;;;;;;;20.50;13.43;;;-3276.50;80.90;;;;;;6317317;28;20274;-61
2022/01/10 05:28:01;;;;;;;20.53;13.37;;;-3276.50;80.90;;;;;;6308959;28;20231;-60
2022/01/10 05:31:02;;;;;;;16.57;12.07;;;-3276.60;80.90;;;;;;6308698;28;20322;-61
2022/01/10 05:34:09;;;;;;;22.27;13.47;;;-3276.60;80.60;;;;;;6342919;27;20199;-60
2022/01/10 05:37:10;;;;;;;24.07;13.33;;;-3276.60;80.60;;;;;;6313829;28;20227;-59
2022/01/10 05:40:11;;;;;;;20.10;13.27;;;-3276.60;80.50;;;;;;6312768;28;20216;-58
2022/01/10 05:43:13;;;;;;;20.07;12.70;;;-3276.60;80.60;;;;;;6314370;28;20189;-59
2022/01/10 05:46:19;;;;;;;19.00;13.20;;;-3276.60;80.40;;;;;;6320570;27;20215;-58
2022/01/10 05:49:26;;;;;;;19.67;13.70;;;-3276.60;80.20;;;;;;6327090;28;20650;-59
2022/01/10 05:52:30;;;;;;;16.60;11.93;;;-3276.60;80.40;;;;;;6310440;28;20225;-59
2022/01/10 05:55:32;;;;;;;18.10;11.80;;;-3276.60;80.50;;;;;;6311443;28;20197;-59
2022/01/10 05:58:33;;;;;;;16.60;11.00;;;-3276.60;80.60;;;;;;6319578;28;20242;-59
2022/01/10 06:01:34;;;;;;;18.20;12.13;;;-3276.60;80.60;;;;;;6315330;28;20201;-59
2022/01/10 06:04:43;;;;;;;18.77;11.80;;;-3276.50;80.60;;;;;;6290106;28;20230;-58
2022/01/10 06:08:03;;;;;;;16.43;11.70;;;-3276.50;80.70;;;;;;6287503;28;20185;-58
2022/01/10 06:11:04;;;;;;;17.90;11.07;;;-3276.50;80.70;;;;;;6333889;28;20181;-59
2022/01/10 06:14:11;;;;;;;21.17;13.70;;;-3276.50;80.80;;;;;;6322969;28;20220;-59
2022/01/10 06:17:12;;;;;;;18.07;12.33;;;-3276.60;80.90;;;;;;6273407;28;20654;-58
2022/01/10 06:20:13;;;;;;;19.07;13.67;;;-3276.50;81.10;;;;;;6294374;28;20265;-59
2022/01/10 06:23:15;;;;;;;21.30;14.50;;;-3276.60;81.00;;;;;;6326030;28;20189;-59
2022/01/10 06:26:16;;;;;;;17.13;14.23;;;-3276.60;81.00;;;;;;6280449;28;20628;-59
2022/01/10 06:29:17;;;;;;;19.23;15.67;;;-3276.60;81.00;;;;;;6321068;28;20187;-59
2022/01/10 06:32:18;;;;;;;16.93;12.97;;;-3276.60;80.80;;;;;;6326718;28;20193;-59
2022/01/10 06:35:20;;;;;;;21.07;12.63;;;-3276.60;80.70;;;;;;6343519;28;20199;-58
2022/01/10 06:38:21;;;;;;;21.87;13.67;;;-3276.60;80.70;;;;;;6310924;28;20188;-59
2022/01/10 06:41:22;;;;;;;20.50;13.13;;;-3276.60;80.70;;;;;;6314545;28;20292;-58
2022/01/10 06:44:25;;;;;;;22.73;12.67;;;-3276.60;80.60;;;;;;6305393;28;20219;-59
2022/01/10 06:47:26;;;;;;;17.70;12.43;;;-3276.60;80.80;;;;;;6320203;28;20196;-59
2022/01/10 06:50:28;;;;;;;19.73;12.53;;;-3276.60;80.60;;;;;;6278472;28;20204;-59
2022/01/10 06:53:29;;;;;;;16.40;11.83;;;-3276.70;80.60;;;;;;6309852;28;20189;-60
2022/01/10 06:56:32;;;;;;;18.40;12.57;;;-3276.60;80.60;;;;;;6330541;28;20241;-58
2022/01/10 06:59:35;;;;;;;18.67;12.83;;;-3276.60;80.80;;;;;;6326129;28;20200;-58
2022/01/10 07:02:43;;;;;;;15.67;11.10;;;-3276.60;81.00;;;;;;6314112;28;20192;-59
2022/01/10 07:05:45;;;;;;;19.70;10.87;;;-3276.60;80.80;;;;;;6297012;28;20208;-59
2022/01/10 07:08:50;;;;;;;16.10;10.80;;;-3276.50;80.80;;;;;;6290236;28;20688;-59
2022/01/10 07:11:54;;;;;;;21.00;12.53;;;-3276.50;81.00;;;;;;6320623;28;20193;-59
2022/01/10 07:14:55;;;;;;;16.70;11.53;;;-3276.50;81.00;;;;;;6324935;28;20189;-59
2022/01/10 07:17:55;;;;;;;13.50;10.03;;;-3276.50;81.10;;;;;;6328619;28;20195;-58
2022/01/10 07:20:58;;;;;;;16.17;11.53;;;-3276.50;81.00;;;;;;6308400;28;20316;-59
2022/01/10 07:23:59;;;;;;;16.60;11.63;;;-3276.60;80.90;;;;;;6315543;28;20201;-58
2022/01/10 07:27:01;;;;;;;19.17;12.10;;;-3276.60;81.00;;;;;;6288714;28;20220;-58
2022/01/10 07:30:04;;;;;;;13.80;10.90;;;-3276.60;81.00;;;;;;6293902;28;20188;-59
2022/01/10 07:33:05;;;;;;;15.50;10.63;;;-3276.70;81.10;;;;;;6325549;28;20196;-59
2022/01/10 07:36:06;;;;;;;16.17;11.10;;;-3276.70;80.90;;;;;;6289132;28;20270;-59
2022/01/10 07:39:07;;;;;;;19.03;11.27;;;0.00;81.00;;;;;;6309790;28;20229;-59
2022/01/10 07:42:08;;;;;;;14.63;10.23;;;0.00;80.70;;;;;;6308681;28;20200;-59
2022/01/10 07:45:24;;;;;;;15.40;9.97;;;0.00;80.60;;;;;;6313592;28;20219;-58
2022/01/10 07:48:28;;;;;;;12.70;9.43;;;0.00;80.30;;;;;;6333908;28;20321;-59
2022/01/10 07:51:29;;;;;;;16.77;10.60;;;0.10;80.40;;;;;;6338235;28;20211;-59
2022/01/10 07:54:29;;;;;;;16.77;9.83;;;0.10;80.60;;;;;;6295509;28;20187;-59
2022/01/10 07:57:31;;;;;;;15.73;10.63;;;0.20;80.20;;;;;;6313352;28;20199;-59
2022/01/10 08:00:32;;;;;;;16.60;10.30;;;0.30;79.80;;;;;;6294505;28;20660;-59
2022/01/10 08:03:33;;;;;;;14.40;10.10;;;0.30;79.70;;;;;;6291003;28;20203;-59
2022/01/10 08:06:33;;;;;;;16.10;10.57;;;0.30;79.50;;;;;;6293381;28;20238;-59
2022/01/10 08:09:34;;;;;;;16.43;10.03;;;0.40;79.30;;;;;;6326611;28;20712;-59
2022/01/10 08:12:35;;;;;;;13.63;10.53;;;0.50;79.20;;;;;;6329281;28;20202;-59
2022/01/10 08:15:36;;;;;;;13.63;10.17;;;0.60;78.70;;;;;;6332471;28;20203;-59
2022/01/10 08:18:37;;;;;;;13.90;9.47;;;0.60;78.70;;;;;;6322347;28;20192;-59
2022/01/10 08:21:38;;;;;;;13.77;10.33;;;0.80;78.60;;;;;;6313474;28;20346;-59
2022/01/10 08:24:38;;;;;;;11.73;8.33;;;0.80;78.40;;;;;;6320226;28;20268;-59
2022/01/10 08:27:40;;;;;;;13.23;9.43;;;0.80;78.30;;;;;;6328202;28;20187;-59
2022/01/10 08:30:40;;;;;;;14.17;10.37;;;0.80;77.80;;;;;;6282843;28;20192;-59
2022/01/10 08:33:44;;;;;;;16.90;10.93;;;0.80;77.80;;;;;;6298547;28;20199;-59
2022/01/10 08:36:44;;;;;;;15.50;10.27;;;0.90;77.30;;;;;;6314967;28;20205;-59
2022/01/10 08:39:49;;;;;;;15.63;10.00;;;1.00;77.30;;;;;;6307235;28;20220;-58
2022/01/10 08:42:50;;;;;;;14.77;9.67;;;1.00;77.20;;;;;;6291443;28;20204;-59
2022/01/10 08:45:51;;;;;;;16.50;10.60;;;1.00;77.40;;;;;;6307174;28;20219;-59
2022/01/10 08:48:52;;;;;;;14.57;9.53;;;1.10;77.20;;;;;;6307907;28;20192;-59
2022/01/10 08:51:55;;;;;;;14.37;10.23;;;1.10;77.00;;;;;;6292079;28;20203;-59
2022/01/10 08:54:56;;;;;;;11.90;9.53;;;1.30;77.10;;;;;;6292314;28;20216;-59
2022/01/10 08:57:57;;;;;;;16.10;9.63;;;1.30;77.30;;;;;;6289693;28;20238;-59
2022/01/10 09:01:03;;;;;;;17.47;9.87;;;1.30;77.00;;;;;;6306318;28;20287;-59
2022/01/10 09:04:04;;;;;;;14.97;9.90;;;1.30;76.50;;;;;;6290585;28;20203;-59
2022/01/10 09:07:08;;;;;;;14.20;9.20;;;1.30;76.30;;;;;;6295324;28;20283;-59
2022/01/10 09:10:08;;;;;;;12.40;9.27;;;1.40;76.30;;;;;;6303147;28;20190;-59
2022/01/10 09:13:09;;;;;;;14.17;9.27;;;1.40;76.60;;;;;;6322957;28;20281;-58
2022/01/10 09:16:13;;;;;;;15.70;9.83;;;1.50;76.70;;;;;;6296582;28;20196;-58
2022/01/10 09:19:14;;;;;;;14.17;10.33;;;1.50;76.70;;;;;;6292673;28;20203;-59
2022/01/10 09:22:15;;;;;;;14.53;9.10;;;1.60;77.00;;;;;;6314859;28;20730;-59
2022/01/10 09:25:16;;;;;;;15.63;9.50;;;1.70;77.20;;;;;;6289134;28;20393;-59
2022/01/10 09:28:19;;;;;;;13.17;8.90;;;1.90;76.60;;;;;;6321485;28;20192;-59
2022/01/10 09:31:22;;;;;;;12.13;8.03;;;2.10;76.30;;;;;;6289910;28;20199;-59
2022/01/10 09:34:23;;;;;;;14.73;8.93;;;2.30;75.90;;;;;;6312832;28;20256;-59
2022/01/10 09:37:25;;;;;;;12.73;9.00;;;2.60;75.10;;;;;;6316505;28;20192;-59
2022/01/10 09:40:26;;;;;;;13.83;8.30;;;2.90;72.80;;;;;;6284582;28;20286;-59
2022/01/10 09:43:27;;;;;;;11.93;8.23;;;3.30;72.40;;;;;;6304271;28;20199;-59
2022/01/10 09:46:29;;;;;;;14.57;8.07;;;3.60;71.50;;;;;;6290641;28;20219;-59
2022/01/10 09:49:29;;;;;;;9.83;6.83;;;3.90;70.30;;;;;;6281436;28;20201;-59
2022/01/10 09:52:30;;;;;;;13.50;7.37;;;4.20;69.30;;;;;;6288315;28;20282;-59
2022/01/10 09:55:34;;;;;;;9.57;5.70;;;4.50;68.30;;;;;;6288815;28;20222;-59
2022/01/10 09:58:35;;;;;;;7.30;4.23;;;4.80;67.00;;;;;;6341200;27;20216;-59
2022/01/10 10:01:36;;;;;;;7.00;4.33;;;4.90;65.20;;;;;;6296340;28;20196;-58
2022/01/10 10:04:37;;;;;;;8.60;4.97;;;5.20;64.30;;;;;;6342260;28;20215;-59
2022/01/10 10:07:40;;;;;;;6.27;4.63;;;5.40;63.90;;;;;;6314653;28;20196;-59
2022/01/10 10:10:42;;;;;;;3.10;2.40;;;5.70;62.30;;;;;;6339128;28;20195;-59
2022/01/10 10:13:54;;;;;;;2.70;1.80;;;5.80;59.10;;;;;;6294881;28;20203;-59
2022/01/10 10:16:57;;;;;;;3.70;1.93;;;6.00;60.20;;;;;;6321923;28;20208;-59
2022/01/10 10:19:58;;;;;;;2.57;1.93;;;6.30;57.80;;;;;;6343560;28;20368;-59
2022/01/10 10:22:59;;;;;;;1.97;1.47;;;6.40;57.50;;;;;;6339938;28;20196;-59
2022/01/10 10:25:59;;;;;;;1.30;0.97;;;6.60;56.70;;;;;;6286917;28;20296;-59
2022/01/10 10:29:01;;;;;;;1.13;0.80;;;6.70;55.00;;;;;;6287996;28;20261;-59
2022/01/10 10:32:02;;;;;;;0.93;0.60;;;6.80;55.00;;;;;;6287281;28;20224;-59
2022/01/10 10:35:06;;;;;;;1.37;0.80;;;6.80;54.50;;;;;;6287260;28;20215;-59
2022/01/10 10:38:07;;;;;;;0.50;0.50;;;7.00;52.50;;;;;;6316363;28;20249;-59
2022/01/10 10:41:08;;;;;;;2.83;1.40;;;7.00;53.00;;;;;;6329827;28;20199;-58
2022/01/10 10:44:08;;;;;;;1.73;0.93;;;7.20;52.20;;;;;;6322290;28;20226;-59
2022/01/10 10:47:12;;;;;;;0.60;0.50;;;7.30;51.00;;;;;;6295269;28;20245;-59
2022/01/10 10:50:13;;;;;;;0.60;0.50;;;7.30;51.20;;;;;;6337227;28;20236;-59
2022/01/10 10:53:15;;;;;;;1.53;1.43;;;7.30;51.20;;;;;;6294152;28;20191;-58
2022/01/10 10:56:15;;;;;;;1.90;1.07;;;7.40;51.20;;;;;;6324068;28;20191;-59
2022/01/10 10:59:16;;;;;;;0.50;0.50;;;7.40;50.50;;;;;;6294307;28;20222;-59
2022/01/10 11:02:18;;;;;;;0.70;0.40;;;7.30;51.30;;;;;;6329955;28;20194;-59
2022/01/10 11:05:19;;;;;;;0.47;0.33;;;7.40;51.40;;;;;;6328643;28;20271;-59
2022/01/10 11:08:20;;;;;;;2.63;0.40;;;7.40;50.00;;;;;;6329642;28;20199;-59
2022/01/10 11:11:21;;;;;;;0.70;0.40;;;7.40;50.30;;;;;;6295523;28;20195;-59
2022/01/10 11:14:24;;;;;;;1.20;0.60;;;7.30;50.20;;;;;;6320137;28;20568;-60
2022/01/10 11:17:26;;;;;;;1.97;0.67;;;7.30;50.80;;;;;;6287577;28;20286;-59
2022/01/10 11:20:28;;;;;;;1.43;0.93;;;7.20;50.70;;;;;;6327236;28;20250;-59
2022/01/10 11:23:29;;;;;;;0.77;0.57;;;7.20;50.00;;;;;;6328601;28;20223;-59
2022/01/10 11:26:41;;;;;;;0.60;0.43;;;7.10;51.20;;;;;;6289192;28;20227;-59
2022/01/10 11:29:42;;;;;;;0.40;0.40;;;7.00;50.80;;;;;;6297634;28;20197;-59
2022/01/10 11:33:09;;;;;;;0.80;0.70;;;7.10;51.30;;;;;;6281946;28;20196;-59
2022/01/10 11:36:10;;;;;;;0.40;0.40;;;7.10;50.60;;;;;;6341905;28;20219;-59
2022/01/10 11:39:11;;;;;;;0.73;0.60;;;7.10;51.60;;;;;;6276246;28;20554;-58
2022/01/10 11:42:21;;;;;;;0.33;0.30;;;7.10;51.50;;;;;;6287188;28;20208;-59
2022/01/10 11:45:22;;;;;;;0.63;0.60;;;7.10;51.10;;;;;;6305932;28;20299;-59
2022/01/10 11:48:23;;;;;;;0.30;0.30;;;7.10;50.90;;;;;;6287467;28;20203;-59
2022/01/10 11:51:34;;;;;;;1.27;0.40;;;7.10;50.80;;;;;;6295314;28;20192;-59
2022/01/10 11:54:34;;;;;;;1.50;0.47;;;7.10;50.60;;;;;;6339641;28;20185;-59
2022/01/10 11:57:36;;;;;;;0.97;0.80;;;7.20;51.20;;;;;;6321920;28;20269;-58
2022/01/10 12:00:37;;;;;;;0.37;0.37;;;7.30;50.80;;;;;;6312219;28;20207;-58
2022/01/10 12:03:38;;;;;;;0.93;0.40;;;7.40;50.80;;;;;;6322752;28;20187;-59
2022/01/10 12:06:39;;;;;;;1.50;0.50;;;7.50;50.60;;;;;;6311990;28;20665;-59
2022/01/10 12:09:40;;;;;;;0.90;0.50;;;7.60;50.20;;;;;;6315188;28;20189;-59
2022/01/10 12:12:42;;;;;;;0.50;0.50;;;7.70;49.90;;;;;;6281579;28;20199;-59
2022/01/10 12:15:42;;;;;;;0.40;0.37;;;7.80;49.90;;;;;;6321005;28;20191;-59
2022/01/10 12:18:43;;;;;;;0.33;0.33;;;8.00;48.90;;;;;;6325489;28;20703;-59
2022/01/10 12:21:44;;;;;;;1.33;0.60;;;8.20;48.70;;;;;;6299508;28;20260;-59
2022/01/10 12:24:45;;;;;;;1.63;0.43;;;8.30;48.60;;;;;;6331104;28;20215;-59
2022/01/10 12:27:48;;;;;;;1.10;0.50;;;8.50;48.50;;;;;;6333360;28;20179;-59
2022/01/10 12:30:49;;;;;;;0.73;0.50;;;8.60;47.40;;;;;;6337730;28;20187;-59
2022/01/10 12:33:52;;;;;;;0.77;0.50;;;8.70;47.70;;;;;;6337003;28;20230;-59
2022/01/10 12:36:53;;;;;;;0.53;0.30;;;8.80;46.90;;;;;;6303869;28;20233;-56
2022/01/10 12:39:55;;;;;;;0.50;0.50;;;9.10;45.80;;;;;;6342824;28;20195;-55
2022/01/10 12:42:56;;;;;;;0.20;0.20;;;9.30;46.10;;;;;;6348990;27;20189;-59
2022/01/10 12:45:57;;;;;;;0.60;0.37;;;9.50;44.90;;;;;;6311959;28;20227;-59
2022/01/10 12:49:02;;;;;;;0.50;0.50;;;9.70;43.80;;;;;;6317120;28;20185;-59
2022/01/10 12:52:04;;;;;;;0.20;0.20;;;9.70;44.30;;;;;;6351195;27;20188;-59
2022/01/10 12:55:05;;;;;;;0.43;0.20;;;9.60;44.30;;;;;;6314732;28;20231;-58
2022/01/10 12:58:06;;;;;;;0.70;0.40;;;9.50;44.00;;;;;;6346616;27;20200;-59
2022/01/10 13:01:12;;;;;;;0.27;0.20;;;9.50;44.10;;;;;;6289735;28;20196;-59
2022/01/10 13:04:14;;;;;;;1.03;0.77;;;9.70;44.00;;;;;;6307042;28;20230;-59
2022/01/10 13:07:15;;;;;;;0.23;0.23;;;9.80;43.50;;;;;;6291907;28;20306;-59
2022/01/10 13:10:21;;;;;;;0.67;0.30;;;9.70;43.70;;;;;;6298722;28;20279;-59
2022/01/10 13:13:23;;;;;;;0.20;0.20;;;9.60;43.60;;;;;;6295283;28;20211;-59
2022/01/10 13:16:29;;;;;;;0.23;0.23;;;9.40;43.90;;;;;;6315533;28;20197;-59
2022/01/10 13:19:30;;;;;;;0.40;0.40;;;9.20;44.60;;;;;;6319697;28;20664;-59
2022/01/10 13:22:34;;;;;;;0.57;0.50;;;9.10;44.50;;;;;;6312980;28;20196;-59
2022/01/10 13:25:48;;;;;;;0.53;0.53;;;9.10;45.70;;;;;;6338470;28;20296;-59
2022/01/10 13:28:48;;;;;;;0.67;0.40;;;9.00;45.30;;;;;;6323498;28;20224;-58
2022/01/10 13:31:49;;;;;;;0.87;0.60;;;8.90;45.00;;;;;;6323898;28;20204;-58
2022/01/10 13:35:11;;;;;;;0.40;0.40;;;8.80;45.70;;;;;;6329331;28;20191;-58
2022/01/10 13:38:15;;;;;;;0.30;0.30;;;8.80;45.60;;;;;;6310724;28;20200;-59
2022/01/10 13:41:15;;;;;;;0.90;0.40;;;8.80;45.90;;;;;;6296246;28;20643;-59
2022/01/10 13:44:16;;;;;;;0.70;0.50;;;8.80;45.40;;;;;;6304934;28;20195;-59
2022/01/10 13:47:17;;;;;;;1.03;0.40;;;8.60;45.70;;;;;;6288590;28;20228;-59
2022/01/10 13:50:30;;;;;;;0.53;0.30;;;8.50;46.10;;;;;;6307982;28;20196;-59
2022/01/10 13:53:43;;;;;;;0.47;0.40;;;8.50;46.40;;;;;;6333038;28;20532;-59
2022/01/10 13:56:45;;;;;;;1.90;0.37;;;8.30;46.40;;;;;;6330129;28;20200;-60
2022/01/10 13:59:46;;;;;;;0.20;0.20;;;8.30;46.50;;;;;;6325840;28;20220;-59
2022/01/10 14:02:46;;;;;;;0.40;0.40;;;8.30;46.90;;;;;;6306481;28;20201;-59
2022/01/10 14:06:25;;;;;;;0.97;0.40;;;8.20;47.00;;;;;;6289475;28;20216;-59
2022/01/10 14:09:29;;;;;;;0.57;0.50;;;8.00;47.80;;;;;;6346657;27;20260;-59
2022/01/10 14:12:29;;;;;;;0.60;0.43;;;8.00;47.40;;;;;;6305684;28;20199;-59
2022/01/10 14:15:30;;;;;;;0.50;0.40;;;7.90;47.30;;;;;;6294159;28;20204;-58
2022/01/10 14:18:31;;;;;;;0.60;0.43;;;7.80;47.70;;;;;;6301017;28;20659;-60
2022/01/10 14:21:33;;;;;;;0.93;0.63;;;7.70;47.80;;;;;;6292281;28;20272;-60
2022/01/10 14:24:34;;;;;;;0.97;0.73;;;7.70;47.60;;;;;;6328517;28;20204;-58
2022/01/10 14:27:34;;;;;;;1.00;0.87;;;7.50;48.30;;;;;;6321880;28;20253;-58
2022/01/10 14:30:35;;;;;;;2.30;1.00;;;7.40;49.30;;;;;;6306090;28;20192;-59
2022/01/10 14:33:36;;;;;;;1.70;0.60;;;7.40;49.70;;;;;;6329249;28;20198;-58
2022/01/10 14:36:37;;;;;;;0.60;0.60;;;7.30;50.50;;;;;;6329497;28;20207;-58
2022/01/10 14:39:38;;;;;;;0.83;0.60;;;7.30;50.80;;;;;;6324653;28;20226;-58
2022/01/10 14:42:39;;;;;;;0.83;0.60;;;7.20;51.20;;;;;;6321346;28;20207;-55
2022/01/10 14:45:40;;;;;;;0.83;0.60;;;7.00;51.80;;;;;;6287528;28;20703;-59
2022/01/10 14:48:41;;;;;;;1.97;0.70;;;6.90;50.80;;;;;;6333285;28;20185;-58
2022/01/10 14:51:42;;;;;;;1.30;1.10;;;7.00;50.60;;;;;;6288023;28;20287;-58
2022/01/10 14:54:43;;;;;;;0.50;0.50;;;6.90;50.90;;;;;;6320069;28;20196;-59
2022/01/10 14:57:44;;;;;;;0.50;0.50;;;6.80;50.70;;;;;;6288757;28;20186;-59
2022/01/10 15:00:44;;;;;;;0.30;0.30;;;6.80;50.80;;;;;;6289531;28;20200;-58
2022/01/10 15:03:46;;;;;;;0.33;0.33;;;6.80;50.80;;;;;;6326087;28;20200;-59
2022/01/10 15:06:46;;;;;;;0.60;0.40;;;6.60;50.90;;;;;;6339096;28;20661;-59
2022/01/10 15:09:47;;;;;;;1.60;0.40;;;6.50;51.80;;;;;;6303182;28;20286;-59
2022/01/10 15:12:48;;;;;;;0.67;0.40;;;6.50;51.50;;;;;;6325305;28;20291;-58
2022/01/10 15:15:49;;;;;;;0.73;0.30;;;6.50;51.30;;;;;;6302364;28;20263;-58
2022/01/10 15:18:50;;;;;;;0.97;0.50;;;6.40;51.60;;;;;;6312518;28;20190;-58
2022/01/10 15:21:51;;;;;;;0.60;0.60;;;6.40;51.50;;;;;;6283236;28;20231;-59
2022/01/10 15:24:52;;;;;;;0.70;0.60;;;6.30;51.30;;;;;;6338638;28;20313;-59
2022/01/10 15:27:53;;;;;;;0.80;0.60;;;6.30;52.30;;;;;;6293534;28;20193;-59
2022/01/10 15:30:54;;;;;;;1.47;0.93;;;6.20;53.10;;;;;;6296138;28;20348;-59
2022/01/10 15:33:54;;;;;;;2.30;0.80;;;6.10;53.60;;;;;;6329739;28;20203;-58
2022/01/10 15:36:55;;;;;;;0.87;0.70;;;6.00;54.30;;;;;;6322210;28;20196;-58
2022/01/10 15:39:56;;;;;;;0.60;0.60;;;5.90;53.90;;;;;;6328068;28;20194;-59